sensor_id;sensor_type;location;lat;lon;timestamp;P1;durP1;ratioP1;P2;durP2;ratioP2
76552;SDS011;65395;53.168;18.156;2023-08-24T00:01:31;11.70;;;4.30;;
76552;SDS011;65395;53.168;18.156;2023-08-24T00:03:58;11.30;;;4.40;;
76552;SDS011;65395;53.168;18.156;2023-08-24T00:06:24;12.10;;;4.50;;
76552;SDS011;65395;53.168;18.156;2023-08-24T00:08:51;11.60;;;4.40;;
76552;SDS011;65395;53.168;18.156;2023-08-24T00:11:18;5.40;;;4.10;;
76552;SDS011;65395;53.168;18.156;2023-08-24T00:13:45;9.10;;;4.20;;
76552;SDS011;65395;53.168;18.156;2023-08-24T00:16:16;9.80;;;3.80;;
76552;SDS011;65395;53.168;18.156;2023-08-24T00:18:43;10.60;;;4.20;;
76552;SDS011;65395;53.168;18.156;2023-08-24T00:21:13;5.20;;;4.30;;
76552;SDS011;65395;53.168;18.156;2023-08-24T00:23:43;10.80;;;4.20;;
76552;SDS011;65395;53.168;18.156;2023-08-24T00:26:10;8.10;;;3.90;;
76552;SDS011;65395;53.168;18.156;2023-08-24T00:28:38;8.10;;;4.10;;
76552;SDS011;65395;53.168;18.156;2023-08-24T00:31:04;8.10;;;4.30;;
76552;SDS011;65395;53.168;18.156;2023-08-24T00:33:31;8.70;;;4.10;;
76552;SDS011;65395;53.168;18.156;2023-08-24T00:35:59;6.30;;;3.90;;
76552;SDS011;65395;53.168;18.156;2023-08-24T00:38:28;7.80;;;3.80;;
76552;SDS011;65395;53.168;18.156;2023-08-24T00:40:55;12.70;;;3.90;;
76552;SDS011;65395;53.168;18.156;2023-08-24T00:43:23;11.20;;;3.90;;
76552;SDS011;65395;53.168;18.156;2023-08-24T00:45:51;7.40;;;3.90;;
76552;SDS011;65395;53.168;18.156;2023-08-24T00:48:19;9.80;;;3.90;;
76552;SDS011;65395;53.168;18.156;2023-08-24T00:50:47;9.20;;;3.60;;
76552;SDS011;65395;53.168;18.156;2023-08-24T00:53:14;6.00;;;3.60;;
76552;SDS011;65395;53.168;18.156;2023-08-24T00:55:40;5.90;;;3.50;;
76552;SDS011;65395;53.168;18.156;2023-08-24T00:58:07;9.40;;;3.70;;
76552;SDS011;65395;53.168;18.156;2023-08-24T01:00:36;8.20;;;3.70;;
76552;SDS011;65395;53.168;18.156;2023-08-24T01:03:03;7.50;;;3.40;;
76552;SDS011;65395;53.168;18.156;2023-08-24T01:05:30;8.20;;;3.40;;
76552;SDS011;65395;53.168;18.156;2023-08-24T01:07:57;6.90;;;3.30;;
76552;SDS011;65395;53.168;18.156;2023-08-24T01:10:24;5.90;;;3.30;;
76552;SDS011;65395;53.168;18.156;2023-08-24T01:13:02;7.20;;;3.50;;
76552;SDS011;65395;53.168;18.156;2023-08-24T01:18:16;5.80;;;3.30;;
76552;SDS011;65395;53.168;18.156;2023-08-24T01:20:46;6.90;;;3.90;;
76552;SDS011;65395;53.168;18.156;2023-08-24T01:23:26;6.20;;;3.30;;
76552;SDS011;65395;53.168;18.156;2023-08-24T01:26:12;6.50;;;3.30;;
76552;SDS011;65395;53.168;18.156;2023-08-24T01:28:41;8.70;;;3.40;;
76552;SDS011;65395;53.168;18.156;2023-08-24T01:31:10;4.50;;;3.60;;
76552;SDS011;65395;53.168;18.156;2023-08-24T01:33:37;7.30;;;3.60;;
76552;SDS011;65395;53.168;18.156;2023-08-24T01:36:06;6.30;;;3.60;;
76552;SDS011;65395;53.168;18.156;2023-08-24T01:38:34;5.70;;;3.50;;
76552;SDS011;65395;53.168;18.156;2023-08-24T01:41:11;5.60;;;3.00;;
76552;SDS011;65395;53.168;18.156;2023-08-24T01:43:45;5.70;;;3.30;;
76552;SDS011;65395;53.168;18.156;2023-08-24T01:46:16;5.90;;;3.50;;
76552;SDS011;65395;53.168;18.156;2023-08-24T01:48:46;8.20;;;3.60;;
76552;SDS011;65395;53.168;18.156;2023-08-24T01:51:14;6.60;;;3.60;;
76552;SDS011;65395;53.168;18.156;2023-08-24T01:53:42;5.40;;;3.50;;
76552;SDS011;65395;53.168;18.156;2023-08-24T01:56:10;6.50;;;3.40;;
76552;SDS011;65395;53.168;18.156;2023-08-24T01:58:37;4.20;;;3.20;;
76552;SDS011;65395;53.168;18.156;2023-08-24T02:01:05;7.70;;;3.00;;
76552;SDS011;65395;53.168;18.156;2023-08-24T02:03:32;4.70;;;3.40;;
76552;SDS011;65395;53.168;18.156;2023-08-24T02:05:59;5.50;;;3.40;;
76552;SDS011;65395;53.168;18.156;2023-08-24T02:08:26;7.70;;;3.70;;
76552;SDS011;65395;53.168;18.156;2023-08-24T02:10:53;6.10;;;3.50;;
76552;SDS011;65395;53.168;18.156;2023-08-24T02:13:19;5.20;;;3.30;;
76552;SDS011;65395;53.168;18.156;2023-08-24T02:15:46;6.90;;;3.20;;
76552;SDS011;65395;53.168;18.156;2023-08-24T02:18:13;5.30;;;3.40;;
76552;SDS011;65395;53.168;18.156;2023-08-24T02:20:39;3.90;;;3.20;;
76552;SDS011;65395;53.168;18.156;2023-08-24T02:23:06;5.00;;;3.40;;
76552;SDS011;65395;53.168;18.156;2023-08-24T02:25:33;5.90;;;3.50;;
76552;SDS011;65395;53.168;18.156;2023-08-24T02:28:00;5.50;;;3.40;;
76552;SDS011;65395;53.168;18.156;2023-08-24T02:30:26;4.20;;;3.30;;
76552;SDS011;65395;53.168;18.156;2023-08-24T02:32:53;6.80;;;3.20;;
76552;SDS011;65395;53.168;18.156;2023-08-24T02:35:20;6.70;;;3.80;;
76552;SDS011;65395;53.168;18.156;2023-08-24T02:37:47;7.80;;;3.30;;
76552;SDS011;65395;53.168;18.156;2023-08-24T02:40:15;5.30;;;3.60;;
76552;SDS011;65395;53.168;18.156;2023-08-24T02:42:42;4.40;;;3.40;;
76552;SDS011;65395;53.168;18.156;2023-08-24T02:45:09;7.40;;;3.40;;
76552;SDS011;65395;53.168;18.156;2023-08-24T02:47:38;19.60;;;4.40;;
76552;SDS011;65395;53.168;18.156;2023-08-24T02:50:05;12.40;;;3.60;;
76552;SDS011;65395;53.168;18.156;2023-08-24T02:52:35;6.60;;;3.40;;
76552;SDS011;65395;53.168;18.156;2023-08-24T02:55:02;7.90;;;3.80;;
76552;SDS011;65395;53.168;18.156;2023-08-24T02:57:30;6.50;;;3.40;;
76552;SDS011;65395;53.168;18.156;2023-08-24T02:59:56;8.80;;;3.40;;
76552;SDS011;65395;53.168;18.156;2023-08-24T03:02:23;8.60;;;3.60;;
76552;SDS011;65395;53.168;18.156;2023-08-24T03:04:50;9.80;;;3.80;;
76552;SDS011;65395;53.168;18.156;2023-08-24T03:07:17;7.80;;;3.30;;
76552;SDS011;65395;53.168;18.156;2023-08-24T03:09:44;9.20;;;3.50;;
76552;SDS011;65395;53.168;18.156;2023-08-24T03:12:11;11.10;;;3.80;;
76552;SDS011;65395;53.168;18.156;2023-08-24T03:14:38;9.40;;;3.50;;
76552;SDS011;65395;53.168;18.156;2023-08-24T03:17:05;7.40;;;3.60;;
76552;SDS011;65395;53.168;18.156;2023-08-24T03:19:33;9.00;;;3.70;;
76552;SDS011;65395;53.168;18.156;2023-08-24T03:22:00;5.30;;;3.70;;
76552;SDS011;65395;53.168;18.156;2023-08-24T03:24:27;4.00;;;3.60;;
76552;SDS011;65395;53.168;18.156;2023-08-24T03:26:54;5.40;;;4.10;;
76552;SDS011;65395;53.168;18.156;2023-08-24T03:29:21;4.70;;;3.80;;
76552;SDS011;65395;53.168;18.156;2023-08-24T03:31:47;6.20;;;4.10;;
76552;SDS011;65395;53.168;18.156;2023-08-24T03:34:14;7.20;;;3.80;;
76552;SDS011;65395;53.168;18.156;2023-08-24T03:36:41;5.80;;;4.10;;
76552;SDS011;65395;53.168;18.156;2023-08-24T03:39:08;5.50;;;4.00;;
76552;SDS011;65395;53.168;18.156;2023-08-24T03:41:35;4.90;;;4.00;;
76552;SDS011;65395;53.168;18.156;2023-08-24T03:44:01;5.60;;;3.90;;
76552;SDS011;65395;53.168;18.156;2023-08-24T03:46:28;8.10;;;4.50;;
76552;SDS011;65395;53.168;18.156;2023-08-24T03:48:55;7.30;;;3.90;;
76552;SDS011;65395;53.168;18.156;2023-08-24T03:51:22;6.40;;;4.10;;
76552;SDS011;65395;53.168;18.156;2023-08-24T03:53:48;5.50;;;4.20;;
76552;SDS011;65395;53.168;18.156;2023-08-24T03:56:16;7.80;;;3.90;;
76552;SDS011;65395;53.168;18.156;2023-08-24T03:58:42;7.30;;;4.10;;
76552;SDS011;65395;53.168;18.156;2023-08-24T04:01:10;7.10;;;4.30;;
76552;SDS011;65395;53.168;18.156;2023-08-24T04:03:37;8.70;;;3.90;;
76552;SDS011;65395;53.168;18.156;2023-08-24T04:06:04;8.00;;;3.80;;
76552;SDS011;65395;53.168;18.156;2023-08-24T04:08:32;7.70;;;3.70;;
76552;SDS011;65395;53.168;18.156;2023-08-24T04:10:58;7.80;;;3.60;;
76552;SDS011;65395;53.168;18.156;2023-08-24T04:13:25;6.50;;;4.00;;
76552;SDS011;65395;53.168;18.156;2023-08-24T04:15:52;8.20;;;3.90;;
76552;SDS011;65395;53.168;18.156;2023-08-24T04:18:19;6.00;;;3.70;;
76552;SDS011;65395;53.168;18.156;2023-08-24T04:20:45;7.00;;;3.50;;
76552;SDS011;65395;53.168;18.156;2023-08-24T04:23:13;6.20;;;3.30;;
76552;SDS011;65395;53.168;18.156;2023-08-24T04:25:40;8.80;;;4.00;;
76552;SDS011;65395;53.168;18.156;2023-08-24T04:28:06;7.80;;;3.20;;
76552;SDS011;65395;53.168;18.156;2023-08-24T04:30:33;18.30;;;4.00;;
76552;SDS011;65395;53.168;18.156;2023-08-24T04:33:00;24.80;;;4.10;;
76552;SDS011;65395;53.168;18.156;2023-08-24T04:35:27;14.00;;;3.60;;
76552;SDS011;65395;53.168;18.156;2023-08-24T04:37:53;12.60;;;3.30;;
76552;SDS011;65395;53.168;18.156;2023-08-24T04:40:21;11.10;;;3.20;;
76552;SDS011;65395;53.168;18.156;2023-08-24T04:42:48;8.90;;;3.10;;
76552;SDS011;65395;53.168;18.156;2023-08-24T04:45:14;6.50;;;2.70;;
76552;SDS011;65395;53.168;18.156;2023-08-24T04:47:41;9.10;;;2.70;;
76552;SDS011;65395;53.168;18.156;2023-08-24T04:50:08;7.90;;;2.90;;
76552;SDS011;65395;53.168;18.156;2023-08-24T04:52:35;6.80;;;3.00;;
76552;SDS011;65395;53.168;18.156;2023-08-24T04:55:01;7.20;;;2.60;;
76552;SDS011;65395;53.168;18.156;2023-08-24T04:57:29;16.20;;;2.90;;
76552;SDS011;65395;53.168;18.156;2023-08-24T04:59:56;9.70;;;3.10;;
76552;SDS011;65395;53.168;18.156;2023-08-24T05:02:23;4.50;;;2.60;;
76552;SDS011;65395;53.168;18.156;2023-08-24T05:04:49;7.20;;;2.50;;
76552;SDS011;65395;53.168;18.156;2023-08-24T05:07:16;6.40;;;2.80;;
76552;SDS011;65395;53.168;18.156;2023-08-24T05:09:43;7.50;;;2.60;;
76552;SDS011;65395;53.168;18.156;2023-08-24T05:12:10;7.00;;;2.60;;
76552;SDS011;65395;53.168;18.156;2023-08-24T05:14:37;4.60;;;2.60;;
76552;SDS011;65395;53.168;18.156;2023-08-24T05:17:03;7.40;;;2.60;;
76552;SDS011;65395;53.168;18.156;2023-08-24T05:19:31;4.60;;;2.60;;
76552;SDS011;65395;53.168;18.156;2023-08-24T05:21:57;14.70;;;2.90;;
76552;SDS011;65395;53.168;18.156;2023-08-24T05:24:24;7.30;;;2.60;;
76552;SDS011;65395;53.168;18.156;2023-08-24T05:26:51;6.00;;;2.50;;
76552;SDS011;65395;53.168;18.156;2023-08-24T05:29:17;5.60;;;1.90;;
76552;SDS011;65395;53.168;18.156;2023-08-24T05:31:44;13.60;;;2.70;;
76552;SDS011;65395;53.168;18.156;2023-08-24T05:34:10;7.80;;;1.80;;
76552;SDS011;65395;53.168;18.156;2023-08-24T05:36:37;11.00;;;2.00;;
76552;SDS011;65395;53.168;18.156;2023-08-24T05:39:04;10.00;;;2.00;;
76552;SDS011;65395;53.168;18.156;2023-08-24T05:41:30;18.20;;;2.40;;
76552;SDS011;65395;53.168;18.156;2023-08-24T05:43:58;6.60;;;1.90;;
76552;SDS011;65395;53.168;18.156;2023-08-24T05:46:24;5.10;;;1.70;;
76552;SDS011;65395;53.168;18.156;2023-08-24T05:48:51;12.50;;;2.20;;
76552;SDS011;65395;53.168;18.156;2023-08-24T05:51:18;9.10;;;2.10;;
76552;SDS011;65395;53.168;18.156;2023-08-24T05:53:44;13.00;;;2.20;;
76552;SDS011;65395;53.168;18.156;2023-08-24T05:56:11;8.70;;;1.90;;
76552;SDS011;65395;53.168;18.156;2023-08-24T05:58:38;5.60;;;1.80;;
76552;SDS011;65395;53.168;18.156;2023-08-24T06:01:04;4.60;;;1.80;;
76552;SDS011;65395;53.168;18.156;2023-08-24T06:03:31;2.40;;;1.50;;
76552;SDS011;65395;53.168;18.156;2023-08-24T06:06:01;3.00;;;1.50;;
76552;SDS011;65395;53.168;18.156;2023-08-24T06:08:29;8.00;;;1.60;;
76552;SDS011;65395;53.168;18.156;2023-08-24T06:10:57;4.70;;;1.40;;
76552;SDS011;65395;53.168;18.156;2023-08-24T06:13:24;3.60;;;1.90;;
76552;SDS011;65395;53.168;18.156;2023-08-24T06:15:51;3.80;;;1.50;;
76552;SDS011;65395;53.168;18.156;2023-08-24T06:18:18;2.70;;;1.60;;
76552;SDS011;65395;53.168;18.156;2023-08-24T06:20:45;5.50;;;1.60;;
76552;SDS011;65395;53.168;18.156;2023-08-24T06:23:12;6.00;;;1.20;;
76552;SDS011;65395;53.168;18.156;2023-08-24T06:25:40;3.60;;;1.10;;
76552;SDS011;65395;53.168;18.156;2023-08-24T06:28:07;2.70;;;1.30;;
76552;SDS011;65395;53.168;18.156;2023-08-24T06:30:37;4.30;;;1.20;;
76552;SDS011;65395;53.168;18.156;2023-08-24T06:33:06;8.20;;;1.20;;
76552;SDS011;65395;53.168;18.156;2023-08-24T06:35:33;4.40;;;1.20;;
76552;SDS011;65395;53.168;18.156;2023-08-24T06:38:01;5.20;;;1.40;;
76552;SDS011;65395;53.168;18.156;2023-08-24T06:40:29;6.30;;;1.50;;
76552;SDS011;65395;53.168;18.156;2023-08-24T06:42:57;4.90;;;1.40;;
76552;SDS011;65395;53.168;18.156;2023-08-24T06:45:23;4.50;;;1.20;;
76552;SDS011;65395;53.168;18.156;2023-08-24T06:47:50;5.80;;;1.50;;
76552;SDS011;65395;53.168;18.156;2023-08-24T06:50:19;11.60;;;1.40;;
76552;SDS011;65395;53.168;18.156;2023-08-24T06:52:46;13.70;;;1.70;;
76552;SDS011;65395;53.168;18.156;2023-08-24T06:55:13;23.10;;;2.10;;
76552;SDS011;65395;53.168;18.156;2023-08-24T06:57:40;6.40;;;1.50;;
76552;SDS011;65395;53.168;18.156;2023-08-24T07:00:07;4.90;;;1.60;;
76552;SDS011;65395;53.168;18.156;2023-08-24T07:02:35;5.30;;;1.40;;
76552;SDS011;65395;53.168;18.156;2023-08-24T07:05:03;1.70;;;1.20;;
76552;SDS011;65395;53.168;18.156;2023-08-24T07:07:32;2.80;;;1.30;;
76552;SDS011;65395;53.168;18.156;2023-08-24T07:09:58;4.10;;;1.30;;
76552;SDS011;65395;53.168;18.156;2023-08-24T07:12:25;4.20;;;1.20;;
76552;SDS011;65395;53.168;18.156;2023-08-24T07:14:52;6.60;;;1.30;;
76552;SDS011;65395;53.168;18.156;2023-08-24T07:17:19;5.20;;;1.70;;
76552;SDS011;65395;53.168;18.156;2023-08-24T07:19:46;4.80;;;1.30;;
76552;SDS011;65395;53.168;18.156;2023-08-24T07:22:13;4.30;;;1.20;;
76552;SDS011;65395;53.168;18.156;2023-08-24T07:24:40;3.30;;;1.30;;
76552;SDS011;65395;53.168;18.156;2023-08-24T07:27:08;4.50;;;1.30;;
76552;SDS011;65395;53.168;18.156;2023-08-24T07:29:35;7.40;;;1.40;;
76552;SDS011;65395;53.168;18.156;2023-08-24T07:32:01;4.80;;;1.40;;
76552;SDS011;65395;53.168;18.156;2023-08-24T07:34:29;2.20;;;1.40;;
76552;SDS011;65395;53.168;18.156;2023-08-24T07:36:56;16.20;;;1.90;;
76552;SDS011;65395;53.168;18.156;2023-08-24T07:39:22;3.80;;;1.30;;
76552;SDS011;65395;53.168;18.156;2023-08-24T07:41:49;4.40;;;1.20;;
76552;SDS011;65395;53.168;18.156;2023-08-24T07:44:16;8.20;;;1.40;;
76552;SDS011;65395;53.168;18.156;2023-08-24T07:46:43;7.60;;;1.50;;
76552;SDS011;65395;53.168;18.156;2023-08-24T07:49:10;4.20;;;1.40;;
76552;SDS011;65395;53.168;18.156;2023-08-24T07:51:37;9.00;;;1.80;;
76552;SDS011;65395;53.168;18.156;2023-08-24T07:54:04;8.30;;;1.50;;
76552;SDS011;65395;53.168;18.156;2023-08-24T07:56:33;5.70;;;1.20;;
76552;SDS011;65395;53.168;18.156;2023-08-24T07:58:59;5.90;;;1.70;;
76552;SDS011;65395;53.168;18.156;2023-08-24T08:01:26;5.30;;;1.70;;
76552;SDS011;65395;53.168;18.156;2023-08-24T08:03:53;3.10;;;1.30;;
76552;SDS011;65395;53.168;18.156;2023-08-24T08:06:19;4.40;;;1.50;;
76552;SDS011;65395;53.168;18.156;2023-08-24T08:08:48;3.00;;;1.50;;
76552;SDS011;65395;53.168;18.156;2023-08-24T08:11:16;1.70;;;1.30;;
76552;SDS011;65395;53.168;18.156;2023-08-24T08:13:43;12.30;;;1.40;;
76552;SDS011;65395;53.168;18.156;2023-08-24T08:16:10;5.50;;;1.50;;
76552;SDS011;65395;53.168;18.156;2023-08-24T08:18:38;9.90;;;1.80;;
76552;SDS011;65395;53.168;18.156;2023-08-24T08:21:08;3.60;;;1.30;;
76552;SDS011;65395;53.168;18.156;2023-08-24T08:23:38;4.10;;;1.20;;
76552;SDS011;65395;53.168;18.156;2023-08-24T08:26:05;3.10;;;1.20;;
76552;SDS011;65395;53.168;18.156;2023-08-24T08:28:32;6.60;;;1.30;;
76552;SDS011;65395;53.168;18.156;2023-08-24T08:31:00;1.80;;;1.20;;
76552;SDS011;65395;53.168;18.156;2023-08-24T08:33:28;2.20;;;1.00;;
76552;SDS011;65395;53.168;18.156;2023-08-24T08:35:56;2.20;;;1.40;;
76552;SDS011;65395;53.168;18.156;2023-08-24T08:38:22;4.20;;;1.30;;
76552;SDS011;65395;53.168;18.156;2023-08-24T08:40:53;2.60;;;1.20;;
76552;SDS011;65395;53.168;18.156;2023-08-24T08:43:22;3.30;;;1.10;;
76552;SDS011;65395;53.168;18.156;2023-08-24T08:45:49;2.60;;;1.20;;
76552;SDS011;65395;53.168;18.156;2023-08-24T08:48:18;1.00;;;0.90;;
76552;SDS011;65395;53.168;18.156;2023-08-24T08:50:48;4.20;;;1.30;;
76552;SDS011;65395;53.168;18.156;2023-08-24T08:53:16;1.90;;;0.90;;
76552;SDS011;65395;53.168;18.156;2023-08-24T08:55:43;4.30;;;1.30;;
76552;SDS011;65395;53.168;18.156;2023-08-24T08:58:11;1.40;;;1.10;;
76552;SDS011;65395;53.168;18.156;2023-08-24T09:00:38;2.20;;;1.40;;
76552;SDS011;65395;53.168;18.156;2023-08-24T09:03:05;4.50;;;1.30;;
76552;SDS011;65395;53.168;18.156;2023-08-24T09:05:33;3.20;;;1.30;;
76552;SDS011;65395;53.168;18.156;2023-08-24T09:08:01;6.40;;;1.10;;
76552;SDS011;65395;53.168;18.156;2023-08-24T09:10:29;4.70;;;1.30;;
76552;SDS011;65395;53.168;18.156;2023-08-24T09:12:56;2.70;;;1.30;;
76552;SDS011;65395;53.168;18.156;2023-08-24T09:15:24;6.80;;;1.30;;
76552;SDS011;65395;53.168;18.156;2023-08-24T09:17:53;2.30;;;1.10;;
76552;SDS011;65395;53.168;18.156;2023-08-24T09:20:22;2.10;;;1.30;;
76552;SDS011;65395;53.168;18.156;2023-08-24T09:22:49;4.50;;;1.40;;
76552;SDS011;65395;53.168;18.156;2023-08-24T09:25:17;2.10;;;1.10;;
76552;SDS011;65395;53.168;18.156;2023-08-24T09:27:44;1.90;;;1.10;;
76552;SDS011;65395;53.168;18.156;2023-08-24T09:30:11;2.10;;;1.20;;
76552;SDS011;65395;53.168;18.156;2023-08-24T09:32:38;6.00;;;1.30;;
76552;SDS011;65395;53.168;18.156;2023-08-24T09:35:08;4.20;;;1.20;;
76552;SDS011;65395;53.168;18.156;2023-08-24T09:37:36;3.50;;;1.20;;
76552;SDS011;65395;53.168;18.156;2023-08-24T09:40:05;3.20;;;1.00;;
76552;SDS011;65395;53.168;18.156;2023-08-24T09:42:37;6.60;;;1.30;;
76552;SDS011;65395;53.168;18.156;2023-08-24T09:45:06;7.20;;;1.20;;
76552;SDS011;65395;53.168;18.156;2023-08-24T09:47:36;4.50;;;1.20;;
76552;SDS011;65395;53.168;18.156;2023-08-24T09:50:04;3.80;;;1.20;;
76552;SDS011;65395;53.168;18.156;2023-08-24T09:52:31;2.20;;;1.20;;
76552;SDS011;65395;53.168;18.156;2023-08-24T09:55:03;3.50;;;1.20;;
76552;SDS011;65395;53.168;18.156;2023-08-24T09:57:33;5.90;;;1.10;;
76552;SDS011;65395;53.168;18.156;2023-08-24T10:00:06;3.90;;;1.50;;
76552;SDS011;65395;53.168;18.156;2023-08-24T10:02:41;1.80;;;1.20;;
76552;SDS011;65395;53.168;18.156;2023-08-24T10:05:19;6.00;;;1.50;;
76552;SDS011;65395;53.168;18.156;2023-08-24T10:07:52;4.40;;;1.30;;
76552;SDS011;65395;53.168;18.156;2023-08-24T10:10:20;2.60;;;1.20;;
76552;SDS011;65395;53.168;18.156;2023-08-24T10:12:50;2.70;;;1.50;;
76552;SDS011;65395;53.168;18.156;2023-08-24T10:15:18;2.50;;;1.30;;
76552;SDS011;65395;53.168;18.156;2023-08-24T10:17:45;4.00;;;1.20;;
76552;SDS011;65395;53.168;18.156;2023-08-24T10:20:13;3.70;;;1.40;;
76552;SDS011;65395;53.168;18.156;2023-08-24T10:22:41;2.00;;;1.40;;
76552;SDS011;65395;53.168;18.156;2023-08-24T10:25:09;3.70;;;1.40;;
76552;SDS011;65395;53.168;18.156;2023-08-24T10:27:36;16.70;;;2.60;;
76552;SDS011;65395;53.168;18.156;2023-08-24T10:30:10;4.60;;;1.50;;
76552;SDS011;65395;53.168;18.156;2023-08-24T10:32:39;5.20;;;1.30;;
76552;SDS011;65395;53.168;18.156;2023-08-24T10:35:07;8.50;;;1.50;;
76552;SDS011;65395;53.168;18.156;2023-08-24T10:37:34;9.20;;;1.70;;
76552;SDS011;65395;53.168;18.156;2023-08-24T10:40:01;4.90;;;1.40;;
76552;SDS011;65395;53.168;18.156;2023-08-24T10:42:42;7.60;;;1.60;;
76552;SDS011;65395;53.168;18.156;2023-08-24T10:45:12;8.00;;;1.80;;
76552;SDS011;65395;53.168;18.156;2023-08-24T10:47:44;6.90;;;1.70;;
76552;SDS011;65395;53.168;18.156;2023-08-24T10:50:12;14.50;;;1.90;;
76552;SDS011;65395;53.168;18.156;2023-08-24T10:52:42;4.00;;;1.60;;
76552;SDS011;65395;53.168;18.156;2023-08-24T10:57:57;5.30;;;1.80;;
76552;SDS011;65395;53.168;18.156;2023-08-24T11:00:26;3.40;;;1.50;;
76552;SDS011;65395;53.168;18.156;2023-08-24T11:02:55;4.50;;;1.30;;
76552;SDS011;65395;53.168;18.156;2023-08-24T11:05:24;8.50;;;2.20;;
76552;SDS011;65395;53.168;18.156;2023-08-24T11:07:59;5.30;;;1.80;;
76552;SDS011;65395;53.168;18.156;2023-08-24T11:10:44;5.40;;;1.50;;
76552;SDS011;65395;53.168;18.156;2023-08-24T11:13:14;3.30;;;1.60;;
76552;SDS011;65395;53.168;18.156;2023-08-24T11:15:49;6.90;;;1.90;;
76552;SDS011;65395;53.168;18.156;2023-08-24T11:18:22;6.00;;;1.60;;
76552;SDS011;65395;53.168;18.156;2023-08-24T11:20:54;4.60;;;1.60;;
76552;SDS011;65395;53.168;18.156;2023-08-24T11:23:26;7.20;;;1.30;;
76552;SDS011;65395;53.168;18.156;2023-08-24T11:25:53;8.90;;;1.70;;
76552;SDS011;65395;53.168;18.156;2023-08-24T11:28:23;3.30;;;1.30;;
76552;SDS011;65395;53.168;18.156;2023-08-24T11:30:52;3.80;;;1.30;;
76552;SDS011;65395;53.168;18.156;2023-08-24T11:35:57;3.60;;;1.40;;
76552;SDS011;65395;53.168;18.156;2023-08-24T11:38:25;7.70;;;1.80;;
76552;SDS011;65395;53.168;18.156;2023-08-24T11:41:01;3.50;;;1.40;;
76552;SDS011;65395;53.168;18.156;2023-08-24T11:43:36;4.80;;;1.50;;
76552;SDS011;65395;53.168;18.156;2023-08-24T11:46:02;7.90;;;1.50;;
76552;SDS011;65395;53.168;18.156;2023-08-24T11:48:30;2.30;;;1.10;;
76552;SDS011;65395;53.168;18.156;2023-08-24T11:50:57;5.10;;;1.70;;
76552;SDS011;65395;53.168;18.156;2023-08-24T11:53:25;3.60;;;1.60;;
76552;SDS011;65395;53.168;18.156;2023-08-24T11:55:53;6.50;;;1.80;;
76552;SDS011;65395;53.168;18.156;2023-08-24T11:58:20;2.80;;;1.40;;
76552;SDS011;65395;53.168;18.156;2023-08-24T12:00:47;6.10;;;1.70;;
76552;SDS011;65395;53.168;18.156;2023-08-24T12:03:14;3.20;;;1.60;;
76552;SDS011;65395;53.168;18.156;2023-08-24T12:05:41;6.20;;;1.80;;
76552;SDS011;65395;53.168;18.156;2023-08-24T12:08:08;4.60;;;1.50;;
76552;SDS011;65395;53.168;18.156;2023-08-24T12:10:41;2.60;;;1.60;;
76552;SDS011;65395;53.168;18.156;2023-08-24T12:13:09;6.50;;;1.60;;
76552;SDS011;65395;53.168;18.156;2023-08-24T12:15:37;6.00;;;1.70;;
76552;SDS011;65395;53.168;18.156;2023-08-24T12:18:08;3.60;;;1.90;;
76552;SDS011;65395;53.168;18.156;2023-08-24T12:20:36;3.70;;;1.50;;
76552;SDS011;65395;53.168;18.156;2023-08-24T12:23:03;4.20;;;1.80;;
76552;SDS011;65395;53.168;18.156;2023-08-24T12:25:30;5.00;;;1.70;;
76552;SDS011;65395;53.168;18.156;2023-08-24T12:30:45;5.20;;;1.80;;
76552;SDS011;65395;53.168;18.156;2023-08-24T12:33:21;3.20;;;1.60;;
76552;SDS011;65395;53.168;18.156;2023-08-24T12:35:53;10.70;;;1.70;;
76552;SDS011;65395;53.168;18.156;2023-08-24T12:38:21;6.00;;;1.70;;
76552;SDS011;65395;53.168;18.156;2023-08-24T12:40:50;40.80;;;3.90;;
76552;SDS011;65395;53.168;18.156;2023-08-24T12:43:17;5.20;;;1.90;;
76552;SDS011;65395;53.168;18.156;2023-08-24T12:45:44;4.80;;;1.80;;
76552;SDS011;65395;53.168;18.156;2023-08-24T12:48:11;8.60;;;1.60;;
76552;SDS011;65395;53.168;18.156;2023-08-24T12:50:38;3.20;;;1.70;;
76552;SDS011;65395;53.168;18.156;2023-08-24T12:53:05;11.50;;;2.90;;
76552;SDS011;65395;53.168;18.156;2023-08-24T12:55:33;9.00;;;2.60;;
76552;SDS011;65395;53.168;18.156;2023-08-24T12:58:01;31.90;;;3.60;;
76552;SDS011;65395;53.168;18.156;2023-08-24T13:00:30;6.80;;;1.90;;
76552;SDS011;65395;53.168;18.156;2023-08-24T13:02:56;5.70;;;1.80;;
76552;SDS011;65395;53.168;18.156;2023-08-24T13:05:23;7.20;;;2.20;;
76552;SDS011;65395;53.168;18.156;2023-08-24T13:07:50;16.70;;;5.10;;
76552;SDS011;65395;53.168;18.156;2023-08-24T13:10:17;5.50;;;3.50;;
76552;SDS011;65395;53.168;18.156;2023-08-24T13:12:44;4.20;;;1.80;;
76552;SDS011;65395;53.168;18.156;2023-08-24T13:15:11;3.60;;;1.80;;
76552;SDS011;65395;53.168;18.156;2023-08-24T13:17:38;4.50;;;1.90;;
76552;SDS011;65395;53.168;18.156;2023-08-24T13:20:05;10.30;;;1.90;;
76552;SDS011;65395;53.168;18.156;2023-08-24T13:22:32;2.70;;;1.70;;
76552;SDS011;65395;53.168;18.156;2023-08-24T13:24:59;4.20;;;1.80;;
76552;SDS011;65395;53.168;18.156;2023-08-24T13:27:26;2.20;;;1.70;;
76552;SDS011;65395;53.168;18.156;2023-08-24T13:29:53;5.10;;;1.90;;
76552;SDS011;65395;53.168;18.156;2023-08-24T13:32:23;4.50;;;2.00;;
76552;SDS011;65395;53.168;18.156;2023-08-24T13:34:49;3.80;;;1.90;;
76552;SDS011;65395;53.168;18.156;2023-08-24T13:37:18;2.90;;;1.80;;
76552;SDS011;65395;53.168;18.156;2023-08-24T13:39:45;4.40;;;1.60;;
76552;SDS011;65395;53.168;18.156;2023-08-24T13:42:11;3.40;;;1.70;;
76552;SDS011;65395;53.168;18.156;2023-08-24T13:44:39;7.00;;;2.30;;
76552;SDS011;65395;53.168;18.156;2023-08-24T13:47:06;3.40;;;1.60;;
76552;SDS011;65395;53.168;18.156;2023-08-24T13:49:32;4.30;;;1.90;;
76552;SDS011;65395;53.168;18.156;2023-08-24T13:51:59;3.10;;;1.90;;
76552;SDS011;65395;53.168;18.156;2023-08-24T13:54:26;4.20;;;2.00;;
76552;SDS011;65395;53.168;18.156;2023-08-24T13:56:53;2.30;;;1.80;;
76552;SDS011;65395;53.168;18.156;2023-08-24T13:59:20;3.40;;;1.80;;
76552;SDS011;65395;53.168;18.156;2023-08-24T14:01:47;10.40;;;3.10;;
76552;SDS011;65395;53.168;18.156;2023-08-24T14:04:14;13.40;;;2.50;;
76552;SDS011;65395;53.168;18.156;2023-08-24T14:06:41;2.40;;;1.80;;
76552;SDS011;65395;53.168;18.156;2023-08-24T14:09:07;3.90;;;1.80;;
76552;SDS011;65395;53.168;18.156;2023-08-24T14:11:34;3.90;;;1.70;;
76552;SDS011;65395;53.168;18.156;2023-08-24T14:14:01;3.00;;;2.00;;
76552;SDS011;65395;53.168;18.156;2023-08-24T14:16:27;11.80;;;2.30;;
76552;SDS011;65395;53.168;18.156;2023-08-24T14:18:54;15.60;;;2.60;;
76552;SDS011;65395;53.168;18.156;2023-08-24T14:21:20;8.00;;;2.30;;
76552;SDS011;65395;53.168;18.156;2023-08-24T14:23:49;6.50;;;2.00;;
76552;SDS011;65395;53.168;18.156;2023-08-24T14:26:17;4.80;;;1.70;;
76552;SDS011;65395;53.168;18.156;2023-08-24T14:28:52;7.30;;;1.90;;
76552;SDS011;65395;53.168;18.156;2023-08-24T14:31:21;16.80;;;2.90;;
76552;SDS011;65395;53.168;18.156;2023-08-24T14:33:48;7.80;;;2.20;;
76552;SDS011;65395;53.168;18.156;2023-08-24T14:36:17;3.60;;;1.90;;
76552;SDS011;65395;53.168;18.156;2023-08-24T14:38:44;3.30;;;1.70;;
76552;SDS011;65395;53.168;18.156;2023-08-24T14:41:11;3.70;;;1.70;;
76552;SDS011;65395;53.168;18.156;2023-08-24T14:43:39;5.30;;;2.10;;
76552;SDS011;65395;53.168;18.156;2023-08-24T14:46:06;5.40;;;1.90;;
76552;SDS011;65395;53.168;18.156;2023-08-24T14:48:33;3.90;;;1.90;;